createdAt,value
2018-12-23T00:00:53.670Z,9.13
2018-12-23T00:03:22.322Z,8.43
2018-12-23T00:05:50.653Z,8.37
2018-12-23T00:08:19.113Z,8.03
2018-12-23T00:10:47.430Z,8.27
2018-12-23T00:13:15.736Z,8.50
2018-12-23T00:15:44.379Z,7.17
2018-12-23T00:18:13.447Z,6.77
2018-12-23T00:20:41.826Z,6.50
2018-12-23T00:23:10.631Z,6.80
2018-12-23T00:25:38.969Z,6.97
2018-12-23T00:28:07.410Z,6.90
2018-12-23T00:30:35.782Z,6.50
2018-12-23T00:33:04.061Z,6.03
2018-12-23T00:35:32.358Z,6.80
2018-12-23T00:38:00.738Z,5.77
2018-12-23T00:40:29.067Z,5.90
2018-12-23T00:42:57.429Z,5.97
2018-12-23T00:45:25.713Z,5.80
2018-12-23T00:47:54.132Z,5.90
2018-12-23T00:50:22.635Z,5.40
2018-12-23T00:52:51.028Z,6.20
2018-12-23T00:55:19.442Z,6.30
2018-12-23T00:57:47.800Z,6.60
2018-12-23T01:00:16.204Z,5.83
2018-12-23T01:02:44.910Z,6.60
2018-12-23T01:05:13.947Z,6.77
2018-12-23T01:07:42.395Z,6.80
2018-12-23T01:10:11.522Z,6.70
2018-12-23T01:12:39.797Z,6.73
2018-12-23T01:15:08.424Z,5.80
2018-12-23T01:17:36.748Z,6.47
2018-12-23T01:20:06.108Z,6.10
2018-12-23T01:22:34.442Z,6.00
2018-12-23T01:25:02.864Z,5.60
2018-12-23T01:27:31.725Z,5.87
2018-12-23T01:30:00.268Z,4.73
2018-12-23T01:32:29.047Z,5.03
2018-12-23T01:35:43.344Z,5.23
2018-12-23T01:38:24.289Z,5.03
2018-12-23T01:41:05.287Z,6.50
2018-12-23T01:43:46.579Z,6.10
2018-12-23T01:46:28.170Z,5.97
2018-12-23T01:49:09.913Z,8.33
2018-12-23T01:51:51.015Z,8.67
2018-12-23T01:54:31.826Z,7.87
2018-12-23T01:57:12.771Z,7.03
2018-12-23T01:59:54.511Z,7.03
2018-12-23T02:02:35.439Z,6.30
2018-12-23T02:05:16.623Z,6.30
2018-12-23T02:07:57.620Z,6.53
2018-12-23T02:10:39.274Z,7.60
2018-12-23T02:13:20.905Z,6.93
2018-12-23T02:16:02.078Z,8.50
2018-12-23T02:18:43.619Z,7.87
2018-12-23T02:21:24.638Z,8.53
2018-12-23T02:24:05.598Z,8.63
2018-12-23T02:26:46.726Z,8.73
2018-12-23T02:29:27.669Z,9.33
2018-12-23T02:32:08.520Z,9.87
2018-12-23T02:34:49.347Z,9.77
2018-12-23T02:37:30.937Z,10.27
2018-12-23T02:40:12.718Z,9.77
2018-12-23T02:42:53.595Z,10.77
2018-12-23T02:45:34.531Z,10.60
2018-12-23T02:48:15.407Z,11.77
2018-12-23T02:50:56.225Z,11.47
2018-12-23T02:53:37.292Z,11.17
2018-12-23T02:56:18.343Z,11.77
2018-12-23T02:58:59.306Z,12.63
2018-12-23T03:01:40.251Z,11.47
2018-12-23T03:04:21.127Z,13.23
2018-12-23T03:07:01.943Z,12.27
2018-12-23T03:09:42.654Z,12.27
2018-12-23T03:12:23.972Z,12.53
2018-12-23T03:15:05.428Z,13.33
2018-12-23T03:17:46.940Z,12.43
2018-12-23T03:20:27.823Z,13.50
2018-12-23T03:23:08.727Z,14.13
2018-12-23T03:25:49.739Z,13.60
2018-12-23T03:28:30.743Z,13.37
2018-12-23T03:31:11.796Z,13.07
2018-12-23T03:33:53.008Z,12.43
2018-12-23T03:36:33.952Z,13.70
2018-12-23T03:39:16.050Z,12.63
2018-12-23T03:41:57.321Z,13.00
2018-12-23T03:44:38.371Z,13.53
2018-12-23T03:47:19.482Z,13.60
2018-12-23T03:50:00.370Z,13.27
2018-12-23T03:52:42.148Z,11.77
2018-12-23T03:55:23.489Z,12.23
2018-12-23T03:58:04.669Z,12.03
2018-12-23T04:00:45.469Z,12.40
2018-12-23T04:03:26.244Z,12.40
2018-12-23T04:06:07.191Z,11.37
2018-12-23T04:08:48.896Z,10.83
2018-12-23T04:11:29.589Z,10.93
2018-12-23T04:14:11.090Z,11.73
2018-12-23T04:16:52.345Z,11.87
2018-12-23T04:19:33.767Z,11.63
2018-12-23T04:22:14.862Z,11.43
2018-12-23T04:24:55.851Z,11.17
2018-12-23T04:27:36.627Z,10.63
2018-12-23T04:30:17.427Z,11.80
2018-12-23T04:32:58.385Z,12.20
2018-12-23T04:35:39.574Z,11.57
2018-12-23T04:38:20.352Z,11.13
2018-12-23T04:41:01.626Z,11.50
2018-12-23T04:43:42.919Z,11.23
2018-12-23T04:46:24.146Z,11.40
2018-12-23T04:49:05.276Z,11.87
2018-12-23T04:51:46.957Z,11.77
2018-12-23T04:54:28.719Z,11.03
2018-12-23T04:57:10.366Z,11.17
2018-12-23T04:59:51.819Z,10.70
2018-12-23T05:02:32.665Z,10.93
2018-12-23T05:05:13.838Z,11.13
2018-12-23T05:07:54.660Z,10.90
2018-12-23T05:10:35.778Z,10.83
2018-12-23T05:13:16.602Z,10.93
2018-12-23T05:15:58.312Z,11.07
2018-12-23T05:18:39.613Z,11.43
2018-12-23T05:21:20.470Z,11.30
2018-12-23T05:24:01.279Z,11.70
2018-12-23T05:26:42.359Z,12.20
2018-12-23T05:29:23.576Z,11.77
2018-12-23T05:32:04.608Z,12.67
2018-12-23T05:34:45.460Z,12.33
2018-12-23T05:37:26.728Z,11.67
2018-12-23T05:40:08.427Z,11.73
2018-12-23T05:42:49.511Z,11.57
2018-12-23T05:45:30.627Z,11.40
2018-12-23T05:48:12.091Z,11.53
2018-12-23T05:50:53.548Z,12.13
2018-12-23T05:53:34.456Z,11.33
2018-12-23T05:56:15.367Z,10.77
2018-12-23T05:58:56.564Z,11.40
2018-12-23T06:01:37.524Z,11.03
2018-12-23T06:04:18.656Z,11.37
2018-12-23T06:07:01.019Z,11.07
2018-12-23T06:09:42.281Z,11.60
2018-12-23T06:12:23.090Z,10.93
2018-12-23T06:15:04.156Z,10.80
2018-12-23T06:17:45.026Z,10.47
2018-12-23T06:20:26.729Z,11.50
2018-12-23T06:23:08.177Z,12.13
2018-12-23T06:25:49.072Z,10.40
2018-12-23T06:28:30.430Z,11.03
2018-12-23T06:31:11.655Z,11.53
2018-12-23T06:33:52.875Z,10.77
2018-12-23T06:36:34.559Z,11.00
2018-12-23T06:39:15.626Z,11.20
2018-12-23T06:41:57.050Z,11.47
2018-12-23T06:44:38.114Z,11.17
2018-12-23T06:47:19.031Z,11.33
2018-12-23T06:50:00.279Z,10.30
2018-12-23T06:52:41.789Z,10.80
2018-12-23T06:55:23.168Z,11.30
2018-12-23T06:58:04.504Z,11.33
2018-12-23T07:00:45.611Z,12.27
2018-12-23T07:03:26.953Z,10.67
2018-12-23T07:06:08.545Z,11.87
2018-12-23T07:08:49.615Z,11.07
2018-12-23T07:11:31.400Z,10.87
2018-12-23T07:14:12.830Z,10.63
2018-12-23T07:16:53.734Z,10.30
2018-12-23T07:19:34.990Z,10.80
2018-12-23T07:22:15.811Z,11.00
2018-12-23T07:24:57.103Z,10.77
2018-12-23T07:27:38.820Z,11.10
2018-12-23T07:30:19.871Z,11.07
2018-12-23T07:33:00.984Z,11.17
2018-12-23T07:35:41.861Z,10.80
2018-12-23T07:38:22.739Z,11.13
2018-12-23T07:41:03.627Z,10.43
2018-12-23T07:43:44.556Z,10.70
2018-12-23T07:46:25.472Z,10.73
2018-12-23T07:49:06.384Z,10.83
2018-12-23T07:51:47.594Z,10.27
2018-12-23T07:54:28.574Z,10.17
2018-12-23T07:57:09.694Z,9.80
2018-12-23T07:59:51.337Z,9.90
2018-12-23T08:02:32.767Z,10.03
2018-12-23T08:05:14.120Z,9.60
2018-12-23T08:07:55.061Z,9.07
2018-12-23T08:10:35.949Z,9.20
2018-12-23T08:13:17.041Z,9.03
2018-12-23T08:15:57.931Z,10.00
2018-12-23T08:18:39.461Z,9.63
2018-12-23T08:21:20.386Z,8.87
2018-12-23T08:24:01.814Z,9.33
2018-12-23T08:26:43.264Z,9.00
2018-12-23T08:29:24.113Z,8.70
2018-12-23T08:32:05.239Z,8.77
2018-12-23T08:34:46.058Z,7.80
2018-12-23T08:37:26.926Z,8.10
2018-12-23T08:40:07.841Z,8.40
2018-12-23T08:42:48.926Z,7.67
2018-12-23T08:45:30.567Z,7.73
2018-12-23T08:48:11.995Z,7.73
2018-12-23T08:50:52.932Z,7.57
2018-12-23T08:53:34.051Z,7.30
2018-12-23T08:56:15.010Z,7.63
2018-12-23T08:58:56.613Z,7.43
2018-12-23T09:01:37.781Z,7.10
2018-12-23T09:04:18.835Z,6.87
2018-12-23T09:07:00.313Z,7.20
2018-12-23T09:09:41.412Z,7.23
2018-12-23T09:12:22.965Z,7.07
2018-12-23T09:15:04.032Z,7.00
2018-12-23T09:17:45.115Z,6.53
2018-12-23T09:20:26.255Z,7.10
2018-12-23T09:23:06.965Z,7.53
2018-12-23T09:25:48.095Z,6.53
2018-12-23T09:28:29.339Z,6.97
2018-12-23T09:31:11.070Z,6.70
2018-12-23T09:33:52.680Z,7.23
2018-12-23T09:36:33.817Z,6.87
2018-12-23T09:39:14.942Z,5.57
2018-12-23T09:41:56.627Z,6.57
2018-12-23T09:44:38.358Z,6.30
2018-12-23T09:47:19.297Z,5.93
2018-12-23T09:50:00.393Z,6.03
2018-12-23T09:52:41.398Z,5.20
2018-12-23T09:55:22.617Z,5.20
2018-12-23T09:58:03.486Z,5.33
2018-12-23T10:00:44.337Z,5.27
2018-12-23T10:03:25.822Z,5.47
2018-12-23T10:06:07.254Z,5.60
2018-12-23T10:08:48.975Z,4.90
2018-12-23T10:11:29.714Z,4.77
2018-12-23T10:14:10.947Z,5.63
2018-12-23T10:16:52.017Z,5.80
2018-12-23T10:19:33.777Z,4.73
2018-12-23T10:22:15.216Z,5.00
2018-12-23T10:24:56.152Z,4.60
2018-12-23T10:27:37.053Z,4.97
2018-12-23T10:33:01.678Z,5.40
2018-12-23T10:35:42.487Z,5.30
2018-12-23T10:38:23.375Z,5.00
2018-12-23T10:41:04.374Z,5.37
2018-12-23T10:43:45.430Z,4.83
2018-12-23T10:46:26.527Z,5.40
2018-12-23T10:49:07.359Z,5.17
2018-12-23T10:51:48.267Z,4.80
2018-12-23T10:54:29.209Z,5.97
2018-12-23T10:57:10.095Z,4.97
2018-12-23T10:59:51.051Z,4.93
2018-12-23T11:02:32.723Z,4.80
2018-12-23T11:05:13.906Z,4.53
2018-12-23T11:07:55.661Z,4.20
2018-12-23T11:10:37.366Z,4.17
2018-12-23T11:13:18.286Z,3.77
2018-12-23T11:15:59.289Z,3.83
2018-12-23T11:18:40.345Z,4.13
2018-12-23T11:21:21.618Z,3.60
2018-12-23T11:24:03.366Z,4.17
2018-12-23T11:26:44.698Z,4.00
2018-12-23T11:29:26.475Z,3.93
2018-12-23T11:32:08.064Z,3.77
2018-12-23T11:34:49.049Z,3.40
2018-12-23T11:37:29.981Z,3.63
2018-12-23T11:40:11.667Z,3.83
2018-12-23T11:42:53.361Z,3.87
2018-12-23T11:45:35.002Z,3.90
2018-12-23T11:48:15.878Z,4.03
2018-12-23T11:50:56.739Z,4.87
2018-12-23T11:53:37.708Z,5.50
2018-12-23T11:56:19.455Z,4.77
2018-12-23T11:59:01.107Z,5.60
2018-12-23T12:01:43.030Z,5.30
2018-12-23T12:04:24.709Z,5.10
2018-12-23T12:07:06.014Z,5.77
2018-12-23T12:09:46.996Z,5.57
2018-12-23T12:12:27.883Z,5.63
2018-12-23T12:15:09.098Z,6.10
2018-12-23T12:17:50.588Z,6.20
2018-12-23T12:20:31.865Z,6.10
2018-12-23T12:23:12.746Z,5.63
2018-12-23T12:25:53.864Z,5.47
2018-12-23T12:28:35.190Z,5.77
2018-12-23T12:31:15.923Z,5.17
2018-12-23T12:33:57.346Z,5.50
2018-12-23T12:36:38.329Z,4.90
2018-12-23T12:39:19.255Z,5.47
2018-12-23T12:42:00.268Z,5.93
2018-12-23T12:44:41.866Z,5.10
2018-12-23T12:47:23.239Z,6.50
2018-12-23T12:50:04.347Z,7.50
2018-12-23T12:52:45.539Z,7.30
2018-12-23T12:55:26.590Z,6.50
2018-12-23T12:58:07.502Z,6.30
2018-12-23T13:00:49.164Z,7.80
2018-12-23T13:03:30.368Z,5.93
2018-12-23T13:06:11.428Z,5.47
2018-12-23T13:09:00.288Z,4.43
2018-12-23T13:11:35.266Z,4.10
2018-12-23T13:14:16.114Z,3.63
2018-12-23T13:16:56.933Z,4.40
2018-12-23T13:19:39.635Z,3.70
2018-12-23T13:22:20.421Z,4.30
2018-12-23T13:25:01.916Z,5.13
2018-12-23T13:27:43.395Z,6.17
2018-12-23T13:30:25.295Z,7.00
2018-12-23T13:33:06.225Z,8.00
2018-12-23T13:35:47.635Z,8.33
2018-12-23T13:38:28.495Z,9.43
2018-12-23T13:41:09.650Z,11.17
2018-12-23T13:43:51.431Z,10.60
2018-12-23T13:46:32.747Z,13.53
2018-12-23T13:49:13.524Z,12.83
2018-12-23T13:51:54.247Z,13.23
2018-12-23T13:54:35.321Z,14.47
2018-12-23T13:57:16.250Z,15.77
2018-12-23T13:59:57.633Z,15.33
2018-12-23T14:02:39.331Z,17.80
2018-12-23T14:05:20.637Z,18.00
2018-12-23T14:08:01.706Z,16.47
2018-12-23T14:10:42.668Z,17.00
2018-12-23T14:13:24.367Z,16.73
2018-12-23T14:16:05.547Z,18.53
2018-12-23T14:18:46.371Z,18.57
2018-12-23T14:21:27.278Z,17.37
2018-12-23T14:24:08.347Z,17.10
2018-12-23T14:26:49.746Z,16.83
2018-12-23T14:29:30.622Z,17.03
2018-12-23T14:32:11.574Z,19.13
2018-12-23T14:34:53.282Z,17.53
2018-12-23T14:37:35.137Z,16.47
2018-12-23T14:40:16.051Z,17.17
2018-12-23T14:42:57.372Z,16.93
2018-12-23T14:45:39.055Z,16.20
2018-12-23T14:48:20.629Z,15.10
2018-12-23T14:51:02.338Z,16.53
2018-12-23T14:53:43.963Z,17.20
2018-12-23T14:56:24.928Z,15.53
2018-12-23T14:59:05.965Z,13.97
2018-12-23T15:01:47.479Z,12.33
2018-12-23T15:04:28.703Z,11.53
2018-12-23T15:07:09.682Z,10.30
2018-12-23T15:09:50.575Z,9.60
2018-12-23T15:12:31.602Z,8.97
2018-12-23T15:15:13.244Z,8.40
2018-12-23T15:17:54.126Z,8.20
2018-12-23T15:20:35.169Z,7.47
2018-12-23T15:23:16.130Z,7.37
2018-12-23T15:25:57.362Z,7.27
2018-12-23T15:28:38.638Z,7.30
2018-12-23T15:31:20.452Z,7.37
2018-12-23T15:34:01.679Z,7.73
2018-12-23T15:36:42.573Z,7.87
2018-12-23T15:39:23.650Z,9.07
2018-12-23T15:42:04.550Z,9.63
2018-12-23T15:44:45.245Z,9.10
2018-12-23T15:47:26.776Z,9.33
2018-12-23T15:50:07.994Z,10.03
2018-12-23T15:52:48.815Z,10.80
2018-12-23T15:55:30.563Z,10.50
2018-12-23T15:58:11.502Z,11.33
2018-12-23T16:00:53.220Z,11.97
2018-12-23T16:03:34.505Z,11.20
2018-12-23T16:06:15.479Z,10.37
2018-12-23T16:08:56.620Z,11.60
2018-12-23T16:11:37.710Z,11.30
2018-12-23T16:14:18.882Z,11.27
2018-12-23T16:17:00.001Z,11.47
2018-12-23T16:19:41.310Z,10.97
2018-12-23T16:22:22.967Z,10.53
2018-12-23T16:25:03.737Z,10.10
2018-12-23T16:27:44.625Z,10.10
2018-12-23T16:30:26.370Z,10.23
2018-12-23T16:33:07.995Z,10.13
2018-12-23T16:35:49.013Z,10.07
2018-12-23T16:38:29.678Z,9.30
2018-12-23T16:41:10.877Z,9.30
2018-12-23T16:43:52.591Z,8.90
2018-12-23T16:46:33.948Z,8.73
2018-12-23T16:49:14.793Z,9.80
2018-12-23T16:51:55.670Z,8.97
2018-12-23T16:54:37.370Z,9.23
2018-12-23T16:57:19.183Z,10.07
2018-12-23T17:00:00.922Z,9.43
2018-12-23T17:02:42.101Z,10.80
2018-12-23T17:05:23.401Z,10.17
2018-12-23T17:08:05.023Z,10.40
2018-12-23T17:10:46.630Z,11.17
2018-12-23T17:13:27.902Z,10.03
2018-12-23T17:16:08.943Z,11.03
2018-12-23T17:18:50.326Z,10.63
2018-12-23T17:21:31.675Z,10.13
2018-12-23T17:24:13.367Z,10.20
2018-12-23T17:26:54.506Z,10.87
2018-12-23T17:29:35.760Z,11.20
2018-12-23T17:32:16.990Z,11.47
2018-12-23T17:34:58.727Z,11.27
2018-12-23T17:37:39.769Z,11.57
2018-12-23T17:40:21.409Z,11.60
2018-12-23T17:43:02.236Z,10.83
2018-12-23T17:45:44.315Z,11.87
2018-12-23T17:48:25.861Z,12.50
2018-12-23T17:51:06.965Z,12.50
2018-12-23T17:53:48.790Z,11.67
2018-12-23T17:56:30.374Z,11.17
2018-12-23T17:59:11.158Z,11.53
2018-12-23T18:01:52.321Z,11.97
2018-12-23T18:04:33.917Z,10.43
2018-12-23T18:07:14.751Z,11.13
2018-12-23T18:09:55.630Z,12.63
2018-12-23T18:12:37.052Z,11.70
2018-12-23T18:15:18.067Z,11.60
2018-12-23T18:17:59.130Z,11.03
2018-12-23T18:20:40.250Z,11.87
2018-12-23T18:23:21.736Z,11.60
2018-12-23T18:26:02.696Z,11.00
2018-12-23T18:28:43.803Z,12.23
2018-12-23T18:31:24.645Z,11.77
2018-12-23T18:34:06.717Z,12.23
2018-12-23T18:36:48.118Z,12.97
2018-12-23T18:39:29.805Z,12.60
2018-12-23T18:42:11.164Z,13.17
2018-12-23T18:44:52.022Z,11.67
2018-12-23T18:47:33.427Z,12.77
2018-12-23T18:50:14.888Z,12.70
2018-12-23T18:52:56.145Z,12.33
2018-12-23T18:55:37.664Z,11.33
2018-12-23T18:58:19.024Z,12.00
2018-12-23T19:01:00.834Z,12.27
2018-12-23T19:03:41.707Z,12.30
2018-12-23T19:06:22.875Z,12.07
2018-12-23T19:09:05.390Z,13.20
2018-12-23T19:11:46.637Z,12.57
2018-12-23T19:14:28.221Z,12.00
2018-12-23T19:17:09.902Z,11.47
2018-12-23T19:19:51.029Z,12.33
2018-12-23T19:22:32.462Z,11.43
2018-12-23T19:25:13.974Z,12.37
2018-12-23T19:27:54.878Z,12.43
2018-12-23T19:30:36.250Z,13.37
2018-12-23T19:33:17.327Z,13.67
2018-12-23T19:35:58.326Z,13.43
2018-12-23T19:38:40.062Z,13.77
2018-12-23T19:41:21.738Z,11.60
2018-12-23T19:44:02.833Z,12.87
2018-12-23T19:46:44.024Z,13.73
2018-12-23T19:49:24.853Z,13.53
2018-12-23T19:52:05.857Z,12.30
2018-12-23T19:54:47.517Z,13.63
2018-12-23T19:57:28.553Z,12.93
2018-12-23T20:00:09.433Z,12.17
2018-12-23T20:02:50.549Z,12.50
2018-12-23T20:05:31.474Z,13.27
2018-12-23T20:08:12.301Z,12.77
2018-12-23T20:10:58.968Z,13.23
2018-12-23T20:13:37.030Z,12.70
2018-12-23T20:16:18.002Z,12.17
2018-12-23T20:19:01.086Z,12.90
2018-12-23T20:21:42.467Z,11.63
2018-12-23T20:24:23.365Z,11.97
2018-12-23T20:27:04.705Z,12.37
2018-12-23T20:29:45.537Z,11.20
2018-12-23T20:32:26.450Z,11.70
2018-12-23T20:35:07.591Z,11.13
2018-12-23T20:37:48.770Z,12.00
2018-12-23T20:40:30.365Z,12.40
2018-12-23T20:43:11.307Z,11.33
2018-12-23T20:45:52.104Z,11.63
2018-12-23T20:48:33.157Z,12.43
2018-12-23T20:51:14.102Z,11.20
2018-12-23T20:53:55.101Z,12.07
2018-12-23T20:56:36.718Z,11.47
2018-12-23T20:59:17.869Z,12.37
2018-12-23T21:01:58.778Z,13.20
2018-12-23T21:04:39.681Z,11.23
2018-12-23T21:07:20.791Z,11.23
2018-12-23T21:10:01.842Z,9.70
2018-12-23T21:12:43.555Z,10.83
2018-12-23T21:15:24.634Z,11.23
2018-12-23T21:18:05.592Z,10.93
2018-12-23T21:20:46.894Z,10.63
2018-12-23T21:23:27.824Z,10.00
2018-12-23T21:26:08.767Z,11.23
2018-12-23T21:28:49.950Z,10.93
2018-12-23T21:31:31.430Z,11.00
2018-12-23T21:34:12.870Z,10.30
2018-12-23T21:36:53.762Z,10.90
2018-12-23T21:39:34.663Z,10.47
2018-12-23T21:42:16.329Z,10.03
2018-12-23T21:44:57.905Z,10.60
2018-12-23T21:47:39.129Z,10.60
2018-12-23T21:50:19.932Z,9.60
2018-12-23T21:53:00.738Z,9.93
2018-12-23T21:55:42.258Z,10.03
2018-12-23T21:58:23.309Z,10.83
2018-12-23T22:01:04.868Z,10.63
2018-12-23T22:03:46.102Z,10.00
2018-12-23T22:06:27.641Z,6.43
2018-12-23T22:09:08.941Z,6.57
2018-12-23T22:11:50.462Z,6.70
2018-12-23T22:14:32.144Z,6.03
2018-12-23T22:17:14.353Z,5.40
2018-12-23T22:19:55.760Z,4.47
2018-12-23T22:22:37.469Z,4.50
2018-12-23T22:25:18.367Z,4.70
2018-12-23T22:27:59.651Z,4.87
2018-12-23T22:30:41.037Z,4.63
2018-12-23T22:33:22.446Z,4.30
2018-12-23T22:36:03.721Z,5.00
2018-12-23T22:38:44.684Z,4.90
2018-12-23T22:41:25.630Z,5.47
2018-12-23T22:44:06.575Z,4.87
2018-12-23T22:46:47.403Z,5.40
2018-12-23T22:49:28.251Z,5.07
2018-12-23T22:52:09.950Z,5.50
2018-12-23T22:54:50.918Z,5.13
2018-12-23T22:57:31.754Z,5.20
2018-12-23T23:00:13.009Z,6.27
2018-12-23T23:02:54.646Z,5.57
2018-12-23T23:05:35.748Z,5.77
2018-12-23T23:08:17.058Z,6.60
2018-12-23T23:10:58.673Z,6.07
2018-12-23T23:13:39.824Z,5.47
2018-12-23T23:16:20.719Z,5.50
2018-12-23T23:19:01.570Z,5.63
2018-12-23T23:21:42.703Z,5.80
2018-12-23T23:24:24.345Z,5.47
2018-12-23T23:27:08.052Z,6.50
2018-12-23T23:29:49.706Z,5.00
2018-12-23T23:32:30.818Z,5.50
2018-12-23T23:35:12.223Z,5.80
2018-12-23T23:37:53.134Z,5.60
2018-12-23T23:40:34.205Z,5.23
2018-12-23T23:43:15.586Z,4.63
2018-12-23T23:45:56.878Z,4.53
2018-12-23T23:48:37.982Z,4.27
2018-12-23T23:51:19.093Z,4.83
2018-12-23T23:54:00.275Z,4.10
2018-12-23T23:56:41.224Z,4.30
2018-12-23T23:59:22.301Z,4.93
